createdAt,value
2018-01-05T00:00:45.891Z,78.42
2018-01-05T00:03:13.564Z,78.39
2018-01-05T00:05:41.253Z,78.59
2018-01-05T00:08:11.045Z,78.40
2018-01-05T00:10:43.032Z,78.93
2018-01-05T00:13:11.065Z,78.35
2018-01-05T00:18:17.617Z,78.17
2018-01-05T00:20:45.386Z,78.46
2018-01-05T00:23:17.646Z,78.83
2018-01-05T00:25:49.903Z,78.15
2018-01-05T00:28:17.619Z,78.52
2018-01-05T00:30:45.392Z,78.01
2018-01-05T00:33:15.637Z,77.86
2018-01-05T00:35:46.383Z,77.43
2018-01-05T00:38:14.284Z,77.28
2018-01-05T00:40:49.818Z,76.83
2018-01-05T00:43:18.481Z,75.93
2018-01-05T00:45:51.545Z,76.82
2018-01-05T00:48:21.685Z,76.96
2018-01-05T00:50:49.366Z,77.18
2018-01-05T00:53:17.068Z,77.05
2018-01-05T00:55:47.293Z,77.11
2018-01-05T00:58:16.683Z,77.05
2018-01-05T01:00:44.560Z,78.21
2018-01-05T01:03:15.025Z,77.62
2018-01-05T01:05:42.806Z,77.90
2018-01-05T01:08:13.933Z,77.08
2018-01-05T01:10:41.875Z,77.68
2018-01-05T01:13:10.430Z,77.35
2018-01-05T01:18:07.303Z,76.95
2018-01-05T01:20:35.043Z,77.41
2018-01-05T01:23:03.327Z,77.59
2018-01-05T01:25:31.084Z,77.57
2018-01-05T01:27:58.868Z,78.08
2018-01-05T01:30:26.591Z,77.41
2018-01-05T01:32:54.636Z,77.41
2018-01-05T01:35:22.322Z,76.01
2018-01-05T01:37:51.684Z,76.65
2018-01-05T01:40:22.952Z,76.30
2018-01-05T01:42:57.470Z,75.61
2018-01-05T01:45:32.673Z,75.92
2018-01-05T01:48:00.374Z,76.82
2018-01-05T01:50:28.065Z,76.02
2018-01-05T01:52:55.763Z,76.38
2018-01-05T01:55:23.504Z,76.63
2018-01-05T01:57:51.246Z,76.19
2018-01-05T02:00:21.028Z,77.13
2018-01-05T02:02:50.555Z,77.17
2018-01-05T02:05:21.014Z,76.85
2018-01-05T02:07:48.678Z,76.32
2018-01-05T02:10:16.355Z,77.13
2018-01-05T02:12:44.631Z,76.87
2018-01-05T02:15:12.750Z,76.98
2018-01-05T02:17:41.132Z,77.55
2018-01-05T02:20:08.784Z,77.07
2018-01-05T02:22:38.402Z,77.48
2018-01-05T02:25:06.462Z,77.23
2018-01-05T02:27:34.085Z,77.23
2018-01-05T02:30:03.028Z,77.93
2018-01-05T02:32:32.406Z,77.57
2018-01-05T02:35:00.080Z,77.75
2018-01-05T02:37:28.240Z,78.20
2018-01-05T02:39:55.977Z,78.14
2018-01-05T02:42:25.752Z,77.75
2018-01-05T02:44:55.352Z,77.75
2018-01-05T02:47:23.114Z,77.47
2018-01-05T02:49:50.838Z,77.27
2018-01-05T02:52:18.736Z,77.81
2018-01-05T02:54:46.819Z,78.04
2018-01-05T02:57:15.094Z,78.03
2018-01-05T02:59:44.337Z,77.48
2018-01-05T03:02:12.165Z,77.81
2018-01-05T03:04:41.135Z,76.98
2018-01-05T03:07:08.911Z,76.78
2018-01-05T03:09:36.983Z,76.45
2018-01-05T03:12:05.976Z,76.73
2018-01-05T03:14:33.807Z,75.95
2018-01-05T03:17:03.865Z,76.06
2018-01-05T03:19:31.740Z,75.96
2018-01-05T03:21:59.828Z,76.19
2018-01-05T03:24:27.617Z,75.83
2018-01-05T03:26:55.287Z,75.83
2018-01-05T03:29:22.987Z,76.09
2018-01-05T03:31:50.909Z,76.18
2018-01-05T03:34:18.696Z,76.63
2018-01-05T03:36:46.465Z,76.71
2018-01-05T03:39:14.288Z,76.87
2018-01-05T03:41:42.126Z,76.97
2018-01-05T03:44:09.886Z,77.58
2018-01-05T03:46:41.704Z,78.14
2018-01-05T03:49:10.779Z,78.26
2018-01-05T03:51:38.508Z,77.38
2018-01-05T03:54:07.058Z,77.90
2018-01-05T03:56:35.878Z,78.01
2018-01-05T03:59:03.538Z,77.84
2018-01-05T04:01:32.530Z,78.25
2018-01-05T04:04:00.149Z,77.40
2018-01-05T04:06:27.923Z,78.33
2018-01-05T04:08:57.352Z,78.69
2018-01-05T04:11:25.247Z,77.96
2018-01-05T04:13:53.627Z,78.82
2018-01-05T04:16:21.391Z,78.99
2018-01-05T04:18:49.123Z,78.71
2018-01-05T04:21:16.845Z,79.14
2018-01-05T04:23:44.668Z,79.10
2018-01-05T04:26:12.361Z,79.23
2018-01-05T04:28:40.166Z,79.31
2018-01-05T04:31:07.853Z,79.22
2018-01-05T04:33:35.743Z,79.18
2018-01-05T04:36:03.432Z,80.00
2018-01-05T04:38:31.209Z,79.37
2018-01-05T04:40:58.900Z,79.60
2018-01-05T04:43:26.684Z,79.87
2018-01-05T04:45:55.161Z,80.14
2018-01-05T04:48:22.894Z,80.32
2018-01-05T04:50:51.156Z,80.57
2018-01-05T04:53:19.195Z,80.49
2018-01-05T04:55:47.126Z,80.83
2018-01-05T04:58:14.830Z,80.75
2018-01-05T05:00:42.740Z,80.54
2018-01-05T05:03:10.418Z,80.42
2018-01-05T05:05:38.513Z,80.78
2018-01-05T05:08:06.212Z,80.49
2018-01-05T05:10:33.952Z,80.43
2018-01-05T05:13:01.657Z,80.23
2018-01-05T05:15:29.376Z,79.75
2018-01-05T05:17:57.443Z,79.82
2018-01-05T05:20:25.080Z,79.81
2018-01-05T05:22:52.775Z,79.37
2018-01-05T05:25:20.547Z,79.38
2018-01-05T05:27:48.490Z,79.50
2018-01-05T05:30:16.152Z,79.62
2018-01-05T05:32:44.001Z,79.31
2018-01-05T05:35:11.690Z,79.14
2018-01-05T05:37:39.383Z,79.28
2018-01-05T05:40:07.162Z,79.24
2018-01-05T05:42:34.866Z,79.00
2018-01-05T05:45:02.849Z,78.74
2018-01-05T05:47:30.507Z,78.98
2018-01-05T05:49:58.574Z,78.82
2018-01-05T05:52:26.309Z,79.16
2018-01-05T05:54:54.001Z,78.14
2018-01-05T05:57:23.950Z,78.01
2018-01-05T05:59:51.693Z,77.96
2018-01-05T06:02:19.361Z,78.01
2018-01-05T06:04:48.530Z,77.35
2018-01-05T06:07:16.199Z,77.45
2018-01-05T06:09:43.974Z,77.33
2018-01-05T06:12:11.697Z,77.17
2018-01-05T06:14:39.382Z,77.13
2018-01-05T06:17:07.079Z,76.80
2018-01-05T06:19:34.744Z,76.98
2018-01-05T06:22:02.504Z,77.22
2018-01-05T06:24:30.582Z,77.36
2018-01-05T06:26:58.255Z,77.75
2018-01-05T06:29:30.826Z,77.62
2018-01-05T06:32:00.832Z,77.64
2018-01-05T06:34:29.705Z,77.53
2018-01-05T06:36:57.458Z,77.90
2018-01-05T06:39:26.214Z,78.07
2018-01-05T06:41:54.033Z,78.23
2018-01-05T06:44:24.412Z,78.13
2018-01-05T06:46:52.471Z,77.95
2018-01-05T06:49:20.696Z,78.39
2018-01-05T06:51:48.825Z,78.09
2018-01-05T06:57:12.114Z,78.43
2018-01-05T06:59:39.875Z,78.52
2018-01-05T07:02:08.897Z,78.83
2018-01-05T07:04:38.768Z,78.89
2018-01-05T07:07:06.778Z,79.49
2018-01-05T07:09:34.795Z,79.83
2018-01-05T07:12:02.483Z,80.16
2018-01-05T07:14:30.225Z,79.75
2018-01-05T07:16:59.053Z,80.15
2018-01-05T07:19:28.616Z,80.70
2018-01-05T07:21:56.384Z,80.56
2018-01-05T07:24:25.244Z,80.56
2018-01-05T07:26:55.396Z,80.58
2018-01-05T07:29:24.206Z,80.98
2018-01-05T07:31:51.968Z,81.25
2018-01-05T07:34:19.720Z,81.41
2018-01-05T07:36:47.414Z,81.49
2018-01-05T07:39:15.123Z,81.77
2018-01-05T07:41:42.862Z,81.85
2018-01-05T07:44:11.364Z,82.28
2018-01-05T07:46:40.225Z,82.30
2018-01-05T07:49:09.188Z,82.49
2018-01-05T07:51:37.143Z,82.51
2018-01-05T07:54:05.995Z,82.53
2018-01-05T07:56:35.013Z,82.87
2018-01-05T07:59:02.766Z,82.75
2018-01-05T08:01:30.516Z,82.91
2018-01-05T08:04:00.692Z,82.82
2018-01-05T08:06:30.930Z,83.31
2018-01-05T08:08:58.834Z,83.32
2018-01-05T08:11:28.066Z,83.35
2018-01-05T08:13:58.099Z,83.50
2018-01-05T08:16:26.583Z,83.57
2018-01-05T08:18:55.812Z,83.75
2018-01-05T08:21:23.621Z,83.77
2018-01-05T08:23:51.729Z,83.94
2018-01-05T08:26:19.867Z,83.83
2018-01-05T08:28:49.465Z,83.94
2018-01-05T08:31:17.404Z,83.99
2018-01-05T08:33:46.278Z,84.18
2018-01-05T08:36:14.099Z,84.54
2018-01-05T08:38:43.340Z,84.36
2018-01-05T08:41:11.902Z,84.53
2018-01-05T08:43:41.144Z,84.76
2018-01-05T08:46:10.466Z,84.57
2018-01-05T08:48:39.492Z,84.58
2018-01-05T08:51:07.250Z,84.78
2018-01-05T08:53:35.759Z,84.82
2018-01-05T08:56:03.594Z,85.03
2018-01-05T08:58:32.204Z,84.87
2018-01-05T09:01:00.785Z,85.17
2018-01-05T09:03:28.738Z,85.30
2018-01-05T09:05:57.694Z,85.23
2018-01-05T09:08:26.685Z,85.01
2018-01-05T09:10:54.576Z,85.10
2018-01-05T09:13:22.366Z,85.25
2018-01-05T09:15:50.982Z,85.18
2018-01-05T09:18:20.047Z,85.54
2018-01-05T09:20:47.841Z,85.45
2018-01-05T09:23:15.606Z,85.49
2018-01-05T09:25:43.347Z,85.51
2018-01-05T09:28:12.379Z,85.17
2018-01-05T09:30:41.004Z,85.46
2018-01-05T09:33:08.963Z,85.66
2018-01-05T09:35:36.727Z,85.64
2018-01-05T09:38:04.344Z,85.76
2018-01-05T09:40:32.053Z,85.75
2018-01-05T09:42:59.744Z,85.77
2018-01-05T09:45:27.783Z,85.81
2018-01-05T09:47:55.513Z,85.93
2018-01-05T09:50:23.286Z,85.76
2018-01-05T09:52:51.079Z,86.03
2018-01-05T09:55:19.083Z,85.93
2018-01-05T09:57:47.123Z,86.11
2018-01-05T10:00:15.190Z,85.79
2018-01-05T10:02:42.988Z,85.80
2018-01-05T10:05:10.692Z,85.95
2018-01-05T10:07:38.403Z,85.75
2018-01-05T10:10:06.437Z,85.55
2018-01-05T10:12:34.131Z,85.85
2018-01-05T10:15:01.769Z,86.09
2018-01-05T10:17:29.750Z,85.99
2018-01-05T10:19:57.459Z,86.17
2018-01-05T10:22:25.156Z,86.02
2018-01-05T10:24:52.839Z,86.14
2018-01-05T10:27:20.592Z,86.63
2018-01-05T10:32:22.603Z,86.63
2018-01-05T10:37:52.461Z,86.66
2018-01-05T10:40:20.910Z,86.65
2018-01-05T10:42:48.984Z,86.45
2018-01-05T10:45:16.756Z,86.52
2018-01-05T10:47:44.509Z,86.59
2018-01-05T10:50:12.194Z,86.63
2018-01-05T10:52:40.133Z,86.65
2018-01-05T10:55:07.823Z,86.49
2018-01-05T10:57:42.681Z,86.63
2018-01-05T11:00:10.447Z,86.65
2018-01-05T11:02:38.123Z,86.78
2018-01-05T11:05:06.122Z,86.51
2018-01-05T11:07:33.877Z,86.67
2018-01-05T11:10:01.665Z,86.70
2018-01-05T11:12:29.440Z,86.73
2018-01-05T11:14:57.120Z,86.74
2018-01-05T11:17:24.814Z,86.70
2018-01-05T11:19:52.542Z,87.24
2018-01-05T11:22:20.670Z,87.05
2018-01-05T11:24:48.368Z,86.98
2018-01-05T11:27:16.254Z,86.96
2018-01-05T11:29:44.217Z,86.81
2018-01-05T11:32:11.882Z,86.79
2018-01-05T11:34:40.039Z,86.72
2018-01-05T11:37:07.766Z,86.73
2018-01-05T11:39:35.581Z,86.78
2018-01-05T11:42:03.303Z,86.96
2018-01-05T11:44:30.942Z,87.04
2018-01-05T11:47:00.624Z,86.97
2018-01-05T11:49:28.569Z,86.94
2018-01-05T11:51:56.385Z,87.02
2018-01-05T11:54:25.138Z,87.11
2018-01-05T11:56:53.161Z,87.07
2018-01-05T11:59:20.901Z,87.28
2018-01-05T12:01:48.561Z,87.19
2018-01-05T12:04:16.688Z,87.16
2018-01-05T12:06:44.391Z,87.25
2018-01-05T12:09:12.058Z,87.36
2018-01-05T12:11:40.179Z,87.32
2018-01-05T12:14:07.810Z,87.27
2018-01-05T12:16:36.832Z,87.23
2018-01-05T12:21:39.903Z,87.29
2018-01-05T12:24:07.595Z,87.28
2018-01-05T12:26:35.322Z,87.23
2018-01-05T12:29:02.987Z,87.28
2018-01-05T12:31:30.696Z,87.22
2018-01-05T12:33:58.376Z,87.20
2018-01-05T12:36:26.083Z,87.17
2018-01-05T12:38:53.731Z,87.13
2018-01-05T12:41:21.849Z,87.02
2018-01-05T12:43:49.924Z,87.09
2018-01-05T12:46:18.903Z,87.38
2018-01-05T12:48:46.701Z,87.36
2018-01-05T12:51:15.633Z,87.30
2018-01-05T12:53:44.237Z,87.28
2018-01-05T12:56:12.330Z,87.18
2018-01-05T12:58:40.043Z,87.44
2018-01-05T13:01:07.726Z,87.46
2018-01-05T13:03:35.615Z,87.66
2018-01-05T13:06:03.292Z,87.72
2018-01-05T13:08:30.908Z,87.70
2018-01-05T13:10:58.520Z,87.69
2018-01-05T13:13:26.090Z,87.73
2018-01-05T13:15:53.844Z,87.69
2018-01-05T13:18:21.444Z,87.71
2018-01-05T13:20:49.111Z,87.84
2018-01-05T13:23:16.671Z,87.79
2018-01-05T13:25:45.791Z,87.82
2018-01-05T13:28:13.784Z,87.78
2018-01-05T13:30:41.418Z,87.84
2018-01-05T13:33:09.005Z,87.86
2018-01-05T13:35:36.618Z,87.94
2018-01-05T13:38:04.288Z,88.08
2018-01-05T13:40:31.889Z,88.05
2018-01-05T13:42:59.847Z,88.10
2018-01-05T13:45:27.458Z,88.14
2018-01-05T13:47:55.029Z,88.22
2018-01-05T13:50:22.874Z,88.18
2018-01-05T13:52:50.799Z,88.29
2018-01-05T13:55:18.379Z,88.31
2018-01-05T13:57:46.026Z,88.49
2018-01-05T14:00:13.626Z,88.59
2018-01-05T14:02:41.283Z,88.59
2018-01-05T14:05:11.958Z,88.61
2018-01-05T14:07:40.004Z,88.68
2018-01-05T14:10:07.603Z,88.74
2018-01-05T14:12:35.474Z,88.74
2018-01-05T14:15:03.295Z,88.91
2018-01-05T14:17:30.863Z,88.99
2018-01-05T14:19:58.517Z,89.14
2018-01-05T14:22:26.159Z,89.10
2018-01-05T14:24:54.108Z,89.04
2018-01-05T14:27:26.057Z,89.00
2018-01-05T14:29:54.150Z,89.01
2018-01-05T14:32:21.743Z,89.00
2018-01-05T14:34:49.424Z,89.07
2018-01-05T14:37:17.343Z,89.26
2018-01-05T14:39:45.031Z,89.50
2018-01-05T14:42:12.687Z,89.58
2018-01-05T14:44:40.397Z,89.51
2018-01-05T14:47:07.967Z,89.48
2018-01-05T14:49:35.669Z,89.59
2018-01-05T14:52:03.293Z,89.56
2018-01-05T14:54:30.903Z,89.67
2018-01-05T14:56:58.942Z,89.67
2018-01-05T14:59:26.513Z,89.57
2018-01-05T15:01:54.095Z,89.58
2018-01-05T15:04:21.840Z,89.59
2018-01-05T15:06:49.501Z,89.79
2018-01-05T15:09:17.123Z,89.83
2018-01-05T15:11:44.692Z,89.81
2018-01-05T15:14:12.377Z,89.87
2018-01-05T15:16:41.204Z,89.88
2018-01-05T15:19:08.834Z,90.07
2018-01-05T15:21:36.485Z,90.05
2018-01-05T15:24:04.108Z,90.07
2018-01-05T15:26:32.035Z,90.14
2018-01-05T15:28:59.753Z,90.12
2018-01-05T15:31:27.637Z,90.17
2018-01-05T15:33:55.259Z,90.22
2018-01-05T15:36:22.920Z,90.17
2018-01-05T15:38:50.562Z,90.25
2018-01-05T15:41:18.183Z,90.13
2018-01-05T15:43:45.967Z,90.34
2018-01-05T15:46:13.938Z,90.45
2018-01-05T15:48:41.522Z,90.68
2018-01-05T15:51:09.204Z,90.66
2018-01-05T15:53:36.958Z,90.53
2018-01-05T15:56:04.608Z,90.62
2018-01-05T15:58:32.314Z,90.67
2018-01-05T16:01:00.415Z,90.53
2018-01-05T16:03:28.040Z,90.50
2018-01-05T16:05:55.669Z,90.56
2018-01-05T16:08:23.571Z,90.67
2018-01-05T16:10:51.795Z,90.71
2018-01-05T16:13:19.598Z,90.74
2018-01-05T16:15:47.500Z,90.89
2018-01-05T16:18:15.159Z,90.74
2018-01-05T16:20:42.887Z,90.94
2018-01-05T16:23:10.519Z,90.99
2018-01-05T16:25:38.364Z,91.08
2018-01-05T16:28:06.020Z,91.12
2018-01-05T16:30:33.630Z,91.08
2018-01-05T16:33:01.268Z,91.07
2018-01-05T16:35:28.851Z,91.00
2018-01-05T16:37:56.467Z,90.94
2018-01-05T16:40:24.122Z,90.89
2018-01-05T16:42:51.926Z,90.98
2018-01-05T16:45:19.863Z,90.93
2018-01-05T16:47:47.827Z,90.95
2018-01-05T16:50:15.657Z,90.88
2018-01-05T16:52:43.295Z,90.81
2018-01-05T16:55:10.971Z,90.76
2018-01-05T16:57:38.562Z,90.70
2018-01-05T17:00:06.193Z,90.68
2018-01-05T17:02:33.846Z,90.83
2018-01-05T17:05:01.429Z,90.82
2018-01-05T17:07:29.330Z,90.91
2018-01-05T17:09:56.972Z,91.23
2018-01-05T17:12:24.870Z,91.62
2018-01-05T17:14:52.544Z,92.00
2018-01-05T17:17:20.503Z,92.18
2018-01-05T17:19:48.086Z,92.06
2018-01-05T17:22:15.994Z,92.01
2018-01-05T17:24:43.667Z,91.97
2018-01-05T17:27:12.173Z,91.99
2018-01-05T17:29:39.798Z,92.03
2018-01-05T17:32:09.453Z,91.98
2018-01-05T17:34:37.515Z,91.99
2018-01-05T17:37:05.113Z,92.04
2018-01-05T17:39:32.816Z,92.04
2018-01-05T17:42:00.512Z,92.06
2018-01-05T17:44:28.186Z,92.16
2018-01-05T17:46:55.891Z,92.24
2018-01-05T17:49:23.543Z,92.46
2018-01-05T17:51:51.211Z,92.59
2018-01-05T17:54:19.760Z,92.67
2018-01-05T17:56:47.381Z,93.35
2018-01-05T17:59:15.045Z,93.78
2018-01-05T18:01:43.922Z,94.12
2018-01-05T18:04:14.446Z,94.50
2018-01-05T18:06:44.395Z,94.53
2018-01-05T18:09:24.617Z,94.41
2018-01-05T18:11:52.376Z,94.28
2018-01-05T18:14:20.277Z,93.88
2018-01-05T18:16:47.917Z,93.76
2018-01-05T18:19:15.502Z,93.89
2018-01-05T18:21:44.311Z,93.80
2018-01-05T18:24:11.955Z,93.80
2018-01-05T18:26:39.619Z,93.84
2018-01-05T18:29:07.599Z,93.85
2018-01-05T18:31:36.632Z,93.64
2018-01-05T18:34:04.399Z,93.64
2018-01-05T18:36:33.132Z,93.79
2018-01-05T18:39:00.988Z,93.72
2018-01-05T18:41:29.279Z,93.76
2018-01-05T18:43:57.352Z,93.74
2018-01-05T18:46:24.970Z,93.73
2018-01-05T18:48:52.794Z,93.74
2018-01-05T18:51:20.505Z,93.67
2018-01-05T18:53:48.131Z,93.56
2018-01-05T18:56:15.792Z,93.42
2018-01-05T18:58:43.733Z,93.24
2018-01-05T19:01:11.399Z,92.92
2018-01-05T19:03:39.249Z,92.80
2018-01-05T19:06:07.229Z,92.43
2018-01-05T19:08:34.837Z,92.16
2018-01-05T19:11:02.755Z,91.39
2018-01-05T19:13:30.404Z,91.17
2018-01-05T19:15:58.020Z,91.06
2018-01-05T19:18:25.668Z,90.85
2018-01-05T19:20:53.222Z,90.94
2018-01-05T19:23:20.968Z,90.85
2018-01-05T19:25:48.838Z,90.87
2018-01-05T19:30:54.828Z,90.91
2018-01-05T19:33:22.614Z,90.92
2018-01-05T19:35:50.266Z,91.03
2018-01-05T19:38:17.907Z,91.25
2018-01-05T19:40:46.996Z,91.54
2018-01-05T19:43:14.688Z,91.52
2018-01-05T19:45:42.550Z,91.48
2018-01-05T19:48:13.950Z,91.33
2018-01-05T19:50:42.069Z,91.19
2018-01-05T19:53:12.427Z,91.19
2018-01-05T19:55:41.766Z,91.08
2018-01-05T19:58:09.622Z,91.04
2018-01-05T20:00:39.534Z,91.01
2018-01-05T20:03:07.662Z,91.01
2018-01-05T20:05:37.209Z,91.00
2018-01-05T20:08:08.129Z,91.03
2018-01-05T20:10:38.439Z,91.04
2018-01-05T20:13:07.732Z,90.93
2018-01-05T20:15:36.482Z,90.88
2018-01-05T20:18:04.139Z,90.88
2018-01-05T20:20:31.988Z,90.83
2018-01-05T20:22:59.732Z,90.78
2018-01-05T20:25:29.057Z,90.86
2018-01-05T20:27:56.707Z,91.12
2018-01-05T20:30:27.413Z,91.42
2018-01-05T20:32:55.144Z,91.63
2018-01-05T20:35:26.168Z,91.75
2018-01-05T20:37:55.990Z,91.88
2018-01-05T20:40:23.778Z,92.05
2018-01-05T20:42:53.302Z,92.08
2018-01-05T20:45:21.382Z,92.22
2018-01-05T20:47:48.999Z,92.62
2018-01-05T20:50:19.102Z,92.84
2018-01-05T20:52:46.790Z,93.05
2018-01-05T20:55:14.681Z,93.35
2018-01-05T20:57:42.305Z,93.83
2018-01-05T21:00:10.278Z,94.30
2018-01-05T21:02:38.958Z,94.52
2018-01-05T21:05:06.724Z,95.06
2018-01-05T21:07:34.474Z,95.10
2018-01-05T21:10:02.316Z,94.94
2018-01-05T21:12:29.959Z,94.81
2018-01-05T21:14:58.410Z,94.68
2018-01-05T21:17:26.078Z,94.53
2018-01-05T21:19:53.713Z,94.43
2018-01-05T21:22:21.303Z,94.21
2018-01-05T21:24:49.336Z,94.06
2018-01-05T21:27:17.683Z,93.99
2018-01-05T21:29:49.097Z,93.90
2018-01-05T21:32:20.333Z,93.73
2018-01-05T21:34:47.931Z,93.58
2018-01-05T21:37:27.890Z,93.37
2018-01-05T21:39:56.992Z,93.28
2018-01-05T21:42:24.610Z,93.23
2018-01-05T21:44:52.341Z,93.21
2018-01-05T21:47:20.096Z,93.14
2018-01-05T21:49:48.212Z,93.04
2018-01-05T21:52:15.844Z,92.86
2018-01-05T21:54:43.558Z,92.96
2018-01-05T21:57:11.255Z,92.95
2018-01-05T21:59:39.084Z,93.04
2018-01-05T22:02:06.874Z,93.09
2018-01-05T22:04:34.693Z,93.05
2018-01-05T22:07:02.766Z,93.07
2018-01-05T22:09:30.722Z,93.01
2018-01-05T22:11:58.312Z,92.98
2018-01-05T22:14:26.297Z,92.85
2018-01-05T22:16:54.048Z,93.04
2018-01-05T22:19:22.699Z,93.00
2018-01-05T22:21:50.439Z,93.03
2018-01-05T22:24:19.411Z,93.31
2018-01-05T22:26:47.316Z,93.36
2018-01-05T22:29:15.165Z,93.22
2018-01-05T22:31:42.915Z,93.24
2018-01-05T22:34:11.149Z,93.32
2018-01-05T22:36:39.333Z,93.34
2018-01-05T22:39:07.268Z,93.35
2018-01-05T22:41:35.028Z,93.44
2018-01-05T22:44:02.774Z,93.36
2018-01-05T22:46:30.444Z,93.30
2018-01-05T22:48:58.275Z,93.31
2018-01-05T22:51:26.108Z,93.37
2018-01-05T22:53:54.038Z,93.44
2018-01-05T22:56:22.018Z,93.57
2018-01-05T22:58:49.961Z,93.59
2018-01-05T23:01:19.020Z,93.86
2018-01-05T23:03:46.896Z,93.82
2018-01-05T23:06:14.817Z,93.85
2018-01-05T23:08:42.630Z,93.81
2018-01-05T23:11:10.559Z,93.78
2018-01-05T23:13:38.205Z,93.78
2018-01-05T23:16:05.966Z,93.89
2018-01-05T23:18:33.807Z,93.95
2018-01-05T23:21:01.386Z,94.14
2018-01-05T23:23:29.153Z,94.40
2018-01-05T23:25:56.825Z,94.41
2018-01-05T23:28:24.621Z,94.69
2018-01-05T23:30:52.394Z,94.93
2018-01-05T23:33:20.737Z,95.03
2018-01-05T23:35:48.397Z,95.20
2018-01-05T23:38:16.306Z,95.14
2018-01-05T23:40:44.017Z,95.02
2018-01-05T23:43:11.857Z,94.87
2018-01-05T23:45:39.726Z,94.74
2018-01-05T23:48:07.503Z,94.71
2018-01-05T23:50:35.133Z,94.64
2018-01-05T23:53:02.785Z,94.57
2018-01-05T23:55:32.412Z,94.47
2018-01-05T23:58:00.142Z,94.47
